Terminal Aerodrome Forecast
Issued by NWS St Louis, MO

Home | Current Version | Previous Version | Text Only | Print | Product List | Glossary On
Versions: 1 2 3 4 5 6 7 8 9 10 11 12 13 14 15 16 17 18 19 20 21 22 23
000
FTUS43 KLSX 242300
TAFCOU
TAF
KCOU 242337Z 2500/2524 16012KT P6SM SCT040 OVC150
     FM250500 14012KT P6SM VCSH OVC015
     FM250800 15010KT 5SM -SHRA VCTS OVC010CB
     FM251300 19012KT P6SM OVC015
     FM251800 26012KT P6SM BKN020=

USA.gov is the U.S. government's official web portal to all federal, state and local government web resources and services.